默认 日期 大小 文件数 浏览量 最新下载 xml
no tell磁力链接相关资源由用户搜索指令自动获取,结果来源于网络,本站不存储任何资料,亦不承担任何责任,请于24小时内删除,搜索到1169个磁力,用时11ms。
    {"sample.mkv": 15650380, "potcdm-din.mkv": 1680738869, "potcdm-din.nfo": 2491}
创建时间: 2018-11-03 00:49:07 大小:1.58 GB 文件数量:3 热度:21 最近下载:2023-04-07 11:50:02
    {"NH.png": 289174, "info.txt": 387, "Torrent Downloaded from ilcorsaronero.info.txt": 42, "Pirates.of.the.Caribbean.Dead.Men.Tell.No.Tales.2017 WEB-DL 1080p Ita Eng x265-NAHOM.mkv": 1585811097}
创建时间: 2018-11-03 01:49:40 大小:1.48 GB 文件数量:4 热度:12 最近下载:2023-04-07 12:10:07
    {"Torrent Downloaded From Katcr.co - Kickasstorrents.txt": 73, "Pirates.of.the.Caribbean.Dead.Men.Tell.No.Tales.2017.1080P.x265.KATRG.mkv": 1495324337}
创建时间: 2018-11-03 02:25:51 大小:1.39 GB 文件数量:2 热度:12 最近下载:2023-04-07 12:20:02
    ... of the Caribbean – Dead Men Tell No Tales (www.kinоkopilkа.pro).jpg ... of the Caribbean – Dead Men Tell No Tales [BDRip-1080p] (www.kinоkopilkа ...
创建时间: 2018-11-03 02:29:08 大小:11.51 GB 文件数量:3 热度:14 最近下载:2023-04-07 12:30:02
    {"": {"No One Left to Tell.jpg": 29801, "No One Left to Tell-Part01.mp3": 20023878 ... , "No One ... Left to Tell-Part02 ...
创建时间: 2018-11-03 03:24:38 大小:517.37 MB 文件数量:25 热度:17 最近下载:2025-09-21 15:27:04
    ... of the Caribbean Dead Men Tell No Tales (2017) [1080p WEB-DL ... of the Caribbean Dead Men Tell No Tales (2017) [1080p WEB-DL ... of the Caribbean Dead Men Tell No Tales (2017) [1080p WEB-DL ...
创建时间: 2018-11-03 04:06:40 大小:3.14 GB 文件数量:3 热度:24 最近下载:2025-04-29 09:41:02
    ... of the Caribbean Dead Men Tell No Tales (2017) 720p HDTS x264 ...
创建时间: 2018-11-03 05:21:04 大小:1.11 GB 文件数量:6 热度:14 最近下载:2023-04-07 13:40:05
    {"ANY!": {"mcmf.xml": 254, "DUPLICATE": {"MKB_RO.inf": 1048576, "MKB_RW.inf": 1048576, "Content000.cer": 272, "Content001.cer": 1472, "Unit_Key_RO.inf": 65536, "CPSUnit00001.cci": 2048, "CPSUnit00002.cci": 2048, "CPSUnit00003.cci": 2048, "CPSUnit00004.cci ...
创建时间: 2018-11-03 05:50:25 大小:42.24 GB 文件数量:1238 热度:23 最近下载:2024-09-26 13:16:01
    {"Pirates.of.the.Caribbean.Dead.Men.Tell.No.Tales.2017.1080p.WEB-DL.DD5.1.H264-Mirrage.mkv": 4765009794, "Pirates.of.the.Caribbean.Dead.Men.Tell.No.Tales.2017.1080p.WEB-DL.DD5.1.H264-Mirrage.srt": 89390}
创建时间: 2018-11-03 09:15:12 大小:4.44 GB 文件数量:2 热度:14 最近下载:2024-12-05 20:36:02
    {"i.nfo": 1158, "Tell.No.One.2006.720p.BluRay.x264.anoXmous_.mp4": 1092561400, "Tell.No.One.2006.720p.BluRay.x264.anoXmous_eng.srt": 75899, "Tell.No.One.2006.720p.BluRay.x264.anoXmous_swe.srt": 75360}
创建时间: 2018-11-03 11:36:35 大小:1.02 GB 文件数量:4 热度:13 最近下载:2023-04-07 15:40:02
    {"Pirates.of.the.Caribbean.Dead.Men.Tell.No.Tales.2017.BDRip.795MB.MegaPeer.avi": 833740800, "Pirates.of.the.Caribbean.Dead.Men.Tell.No.Tales.2017.BDRip.795MB.MegaPeer.srt": 702}
创建时间: 2018-11-03 12:17:18 大小:795.12 MB 文件数量:2 热度:12 最近下载:2023-04-07 16:20:02
    {"sample.avi": 6240528, "screencaps.jpeg": 606740, "Pirates of the Caribbean Dead Men Tell No Tales (2017) HDRip XviD-MAXSPEED.nfo": 3736, "Pirates of the Caribbean Dead Men Tell No Tales (2017) HDRip XviD-MAXSPEED www.torentz.3xforum.ro.avi": 1561172224}
创建时间: 2018-11-03 15:18:56 大小:1.46 GB 文件数量:4 热度:11 最近下载:2023-04-07 17:40:09
    {"Pirates Of The Caribbean Dead Men Tell No Tales 2017 Movies HD TS XviD Clean Hindi Audio New ☻rDX☻.mkv": 733489579, "Sample ~ Pirates Of The Caribbean Dead Men Tell No Tales 2017 Movies HD TS XviD Clean Hindi Audio New ☻rDX☻.mkv": 7343185}
创建时间: 2018-11-03 15:42:37 大小:706.51 MB 文件数量:2 热度:18 最近下载:2025-09-26 20:53:02
    {"DOWNLOAD FROM HD-ELITE.ORG.txt": 0, "Pirates of the Caribbean Dead Men Tell No Tales 2017BD25 AVC DTS-HD MA 7.1-Paulista.iso": 23952031744}
创建时间: 2018-11-03 18:25:45 大小:22.31 GB 文件数量:2 热度:18 最近下载:2025-03-02 19:56:01
    {"Torrent Downloaded From ExtraTorrent.cc.txt": 338, "Pirates.of.the.Caribbean.Dead.Men.Tell.No.Tales.2017.1080p.WEB-DL.H264.AC3-EVO.mkv": 4764947473, "Pirates.of.the.Caribbean.Dead.Men.Tell.No.Tales.2017.1080p.WEB-DL.H264.AC3-EVO.nfo": 0}
创建时间: 2018-11-03 20:21:55 大小:4.44 GB 文件数量:3 热度:12 最近下载:2023-04-07 22:10:06
    ... of the Caribbean Dead Men Tell No Tales (2017) BluRay 720p x264 ... of the Caribbean Dead Men Tell No Tales (2017) BluRay 720p x264 ... of the Caribbean Dead Men Tell No Tales (2017) BluRay 720p x264 ... of the Caribbean Dead Men Tell No Tales (2017) BluRay 720p x264 ...
创建时间: 2018-11-03 20:59:43 大小:948.01 MB 文件数量:11 热度:24 最近下载:2025-08-04 00:32:06
    {"pirates.of.the.caribbean.dead.men.tell.no.tales.2017.3d.720p.bluray.x264-value.mkv": 5863218637, "pirates.of.the.caribbean.dead.men.tell.no.tales.2017.3d.720p.bluray.x264-value.nfo": 333}
创建时间: 2018-11-03 23:54:19 大小:5.46 GB 文件数量:2 热度:25 最近下载:2025-04-18 22:40:02
    ... of the Caribbean - Dead Men Tell No Tales [Fixed] (2017) 3D LAT ... of the Caribbean - Dead Men Tell No Tales [Fixed] (2017) 3D LAT ...
创建时间: 2018-11-04 02:43:45 大小:7.46 GB 文件数量:5 热度:16 最近下载:2025-01-09 05:42:01
    {"7785907.6.jpg": 26598, "Pirates.of.the.Caribbean.Dead.Men.Tell.No.Tales.2017.1080p.3D.BluRay.H-SBS.x264.Dubbing.Pl.mkv": 4925820470}
创建时间: 2018-11-04 05:32:27 大小:4.59 GB 文件数量:2 热度:14 最近下载:2025-10-12 16:47:02
    {"Pirates.of.the.Caribbean.Dead.Men.Tell.No.Tales.2017.1080p.BRRip.x264.Turkish.AC3-Ozlem.mkv": 2308807482}
创建时间: 2018-11-04 09:08:07 大小:2.15 GB 文件数量:1 热度:15 最近下载:2025-05-09 07:07:01